Airfield :
LOGIN :

Register | Disclaimer

   EN    FR    IT 

 










Legend :    VFR   Marginal VFR   IFR   Intensive IFR   Very Intensive IFR
Visi :
Ceiling :
>= 8 km
>= 3000ft
5 to 8 km
1000 to 3000 ft
1500m to 5 km
500 to 1000 ft
800 to 1500m
200 to 500 ft
< 800m
< 200 ft
Symbols :   Thunderstorms  Fog  Heavy snow  Heavy precipitations  Wind > 20 kt
SIGMETs :     Misc.  Thunderstorms  Icing  Turbulence  Mountain Waves  Volcanic Ashes






- Airport Elevation : 1202 ft
- IATA code : IGS


ETSI - Ingolstadt

CURRENT METAR :
  • 280620Z 30001KT 8000 SCT010 BKN021 05/03 Q1019 WHT WHT BECMG GRN

EXPIRED METARs :
  • 280520Z 30003KT 9999 SCT010 BKN022 05/03 Q1017 WHT WHT BECMG GRN
  • 280420Z 30002KT 9999 BKN020 04/03 Q1017 WHT
  • 280320Z AUTO 19001KT //// // ////// 04/02 Q1016 ///
  • 280220Z AUTO 24001KT //// // ////// 03/02 Q1016 ///

TAF TAF ETSI
Valid from the 28 at 06:00 until the 28 at 15:00 UTC


280520Z 2806/2815 35003KT 7000 NSW BKN008
PROB30 2806/2809 29002KT 4000 BR BKN005 OVC007
BECMG 2810/2812 01005KT 9999 NSW SCT015



MET'MAP, your aeronautical weather chart ! - Copyright ORBIFLY December 2007 - Disclaimer

ORBIFLY MET'MAP TEAM :

Programming & Development : Alexandra Zaïnal
Original concept : Baudouin d'Aumeries
Technical & hardware support : Manuel Goepfert
Assistance : Marc-Olivier Méhu




SOURCES & CREDITS :

   NOAA